sensor_id;sensor_type;location;lat;lon;timestamp;P1;durP1;ratioP1;P2;durP2;ratioP2
35648;SDS011;21768;48.562;13.414;2023-03-14T00:01:21;11.52;;;4.07;;
35648;SDS011;21768;48.562;13.414;2023-03-14T00:03:47;6.05;;;3.00;;
35648;SDS011;21768;48.562;13.414;2023-03-14T00:06:13;10.15;;;3.10;;
35648;SDS011;21768;48.562;13.414;2023-03-14T00:08:40;10.75;;;3.15;;
35648;SDS011;21768;48.562;13.414;2023-03-14T00:11:10;7.40;;;3.33;;
35648;SDS011;21768;48.562;13.414;2023-03-14T00:13:38;10.48;;;3.47;;
35648;SDS011;21768;48.562;13.414;2023-03-14T00:16:04;7.28;;;3.05;;
35648;SDS011;21768;48.562;13.414;2023-03-14T00:18:31;8.60;;;3.33;;
35648;SDS011;21768;48.562;13.414;2023-03-14T00:21:01;6.65;;;3.20;;
35648;SDS011;21768;48.562;13.414;2023-03-14T00:23:28;6.97;;;2.97;;
35648;SDS011;21768;48.562;13.414;2023-03-14T00:25:58;8.40;;;3.60;;
35648;SDS011;21768;48.562;13.414;2023-03-14T00:28:25;8.27;;;3.40;;
35648;SDS011;21768;48.562;13.414;2023-03-14T00:30:50;8.18;;;3.60;;
35648;SDS011;21768;48.562;13.414;2023-03-14T00:33:15;7.18;;;3.28;;
35648;SDS011;21768;48.562;13.414;2023-03-14T00:35:41;8.65;;;3.67;;
35648;SDS011;21768;48.562;13.414;2023-03-14T00:38:06;8.00;;;3.20;;
35648;SDS011;21768;48.562;13.414;2023-03-14T00:40:31;9.25;;;3.58;;
35648;SDS011;21768;48.562;13.414;2023-03-14T00:42:57;12.90;;;3.78;;
35648;SDS011;21768;48.562;13.414;2023-03-14T00:45:22;7.22;;;3.35;;
35648;SDS011;21768;48.562;13.414;2023-03-14T00:47:47;8.93;;;3.60;;
35648;SDS011;21768;48.562;13.414;2023-03-14T00:50:13;8.55;;;4.10;;
35648;SDS011;21768;48.562;13.414;2023-03-14T00:52:38;6.88;;;3.28;;
35648;SDS011;21768;48.562;13.414;2023-03-14T00:55:04;5.43;;;2.97;;
35648;SDS011;21768;48.562;13.414;2023-03-14T00:57:30;14.18;;;3.45;;
35648;SDS011;21768;48.562;13.414;2023-03-14T00:59:55;7.78;;;3.40;;
35648;SDS011;21768;48.562;13.414;2023-03-14T01:02:20;8.02;;;3.80;;
35648;SDS011;21768;48.562;13.414;2023-03-14T01:04:49;5.88;;;3.20;;
35648;SDS011;21768;48.562;13.414;2023-03-14T01:07:15;7.15;;;3.58;;
35648;SDS011;21768;48.562;13.414;2023-03-14T01:09:41;9.85;;;3.33;;
35648;SDS011;21768;48.562;13.414;2023-03-14T01:12:06;5.63;;;2.95;;
35648;SDS011;21768;48.562;13.414;2023-03-14T01:14:32;9.30;;;3.05;;
35648;SDS011;21768;48.562;13.414;2023-03-14T01:16:57;9.35;;;3.20;;
35648;SDS011;21768;48.562;13.414;2023-03-14T01:19:26;6.88;;;3.05;;
35648;SDS011;21768;48.562;13.414;2023-03-14T01:21:52;9.95;;;3.28;;
35648;SDS011;21768;48.562;13.414;2023-03-14T01:24:18;5.93;;;3.33;;
35648;SDS011;21768;48.562;13.414;2023-03-14T01:26:44;11.32;;;3.25;;
35648;SDS011;21768;48.562;13.414;2023-03-14T01:29:09;6.65;;;3.30;;
35648;SDS011;21768;48.562;13.414;2023-03-14T01:31:34;8.82;;;3.22;;
35648;SDS011;21768;48.562;13.414;2023-03-14T01:34:00;6.40;;;2.80;;
35648;SDS011;21768;48.562;13.414;2023-03-14T01:36:25;7.35;;;3.13;;
35648;SDS011;21768;48.562;13.414;2023-03-14T01:38:51;8.40;;;3.50;;
35648;SDS011;21768;48.562;13.414;2023-03-14T01:41:18;6.50;;;2.97;;
35648;SDS011;21768;48.562;13.414;2023-03-14T01:43:46;8.52;;;3.47;;
35648;SDS011;21768;48.562;13.414;2023-03-14T01:46:24;10.38;;;3.60;;
35648;SDS011;21768;48.562;13.414;2023-03-14T01:52:32;6.72;;;3.22;;
35648;SDS011;21768;48.562;13.414;2023-03-14T01:55:09;7.05;;;3.15;;
35648;SDS011;21768;48.562;13.414;2023-03-14T01:57:43;10.27;;;3.33;;
35648;SDS011;21768;48.562;13.414;2023-03-14T02:00:21;12.02;;;3.15;;
35648;SDS011;21768;48.562;13.414;2023-03-14T02:02:48;8.25;;;2.97;;
35648;SDS011;21768;48.562;13.414;2023-03-14T02:05:20;8.50;;;2.80;;
35648;SDS011;21768;48.562;13.414;2023-03-14T02:07:52;6.85;;;2.72;;
35648;SDS011;21768;48.562;13.414;2023-03-14T02:10:20;7.38;;;2.60;;
35648;SDS011;21768;48.562;13.414;2023-03-14T02:12:49;4.28;;;2.63;;
35648;SDS011;21768;48.562;13.414;2023-03-14T02:15:15;4.72;;;2.58;;
35648;SDS011;21768;48.562;13.414;2023-03-14T02:17:41;14.25;;;2.80;;
35648;SDS011;21768;48.562;13.414;2023-03-14T02:22:34;5.03;;;2.80;;
35648;SDS011;21768;48.562;13.414;2023-03-14T02:25:15;11.27;;;2.80;;
35648;SDS011;21768;48.562;13.414;2023-03-14T02:27:45;8.52;;;2.97;;
35648;SDS011;21768;48.562;13.414;2023-03-14T02:30:13;9.35;;;3.30;;
35648;SDS011;21768;48.562;13.414;2023-03-14T02:32:43;7.30;;;2.70;;
35648;SDS011;21768;48.562;13.414;2023-03-14T02:35:12;7.60;;;3.15;;
35648;SDS011;21768;48.562;13.414;2023-03-14T02:37:41;8.27;;;2.97;;
35648;SDS011;21768;48.562;13.414;2023-03-14T02:40:08;12.48;;;2.92;;
35648;SDS011;21768;48.562;13.414;2023-03-14T02:42:36;3.67;;;2.22;;
35648;SDS011;21768;48.562;13.414;2023-03-14T02:47:32;9.82;;;2.60;;
35648;SDS011;21768;48.562;13.414;2023-03-14T02:50:00;5.40;;;2.58;;
35648;SDS011;21768;48.562;13.414;2023-03-14T02:52:28;8.85;;;2.60;;
35648;SDS011;21768;48.562;13.414;2023-03-14T02:54:54;8.85;;;2.42;;
35648;SDS011;21768;48.562;13.414;2023-03-14T02:57:19;9.43;;;2.95;;
35648;SDS011;21768;48.562;13.414;2023-03-14T02:59:45;8.88;;;2.83;;
35648;SDS011;21768;48.562;13.414;2023-03-14T03:02:10;7.55;;;3.03;;
35648;SDS011;21768;48.562;13.414;2023-03-14T03:04:36;7.43;;;3.13;;
35648;SDS011;21768;48.562;13.414;2023-03-14T03:07:01;5.10;;;2.58;;
35648;SDS011;21768;48.562;13.414;2023-03-14T03:09:26;5.88;;;2.70;;
35648;SDS011;21768;48.562;13.414;2023-03-14T03:11:52;4.57;;;2.42;;
35648;SDS011;21768;48.562;13.414;2023-03-14T03:14:17;7.55;;;2.90;;
35648;SDS011;21768;48.562;13.414;2023-03-14T03:16:42;7.05;;;2.88;;
35648;SDS011;21768;48.562;13.414;2023-03-14T03:19:08;8.32;;;3.40;;
35648;SDS011;21768;48.562;13.414;2023-03-14T03:21:33;9.23;;;2.88;;
35648;SDS011;21768;48.562;13.414;2023-03-14T03:23:59;8.38;;;3.33;;
35648;SDS011;21768;48.562;13.414;2023-03-14T03:26:25;5.82;;;2.90;;
35648;SDS011;21768;48.562;13.414;2023-03-14T03:28:50;8.63;;;2.95;;
35648;SDS011;21768;48.562;13.414;2023-03-14T03:31:16;6.03;;;2.53;;
35648;SDS011;21768;48.562;13.414;2023-03-14T03:33:42;7.38;;;3.00;;
35648;SDS011;21768;48.562;13.414;2023-03-14T03:36:07;9.52;;;2.92;;
35648;SDS011;21768;48.562;13.414;2023-03-14T03:38:33;4.05;;;2.53;;
35648;SDS011;21768;48.562;13.414;2023-03-14T03:41:01;6.88;;;2.75;;
35648;SDS011;21768;48.562;13.414;2023-03-14T03:43:28;11.73;;;3.25;;
35648;SDS011;21768;48.562;13.414;2023-03-14T03:45:53;5.78;;;2.78;;
35648;SDS011;21768;48.562;13.414;2023-03-14T03:48:18;6.70;;;2.85;;
35648;SDS011;21768;48.562;13.414;2023-03-14T03:50:44;5.63;;;2.75;;
35648;SDS011;21768;48.562;13.414;2023-03-14T03:53:10;9.70;;;3.05;;
35648;SDS011;21768;48.562;13.414;2023-03-14T03:55:36;7.15;;;3.13;;
35648;SDS011;21768;48.562;13.414;2023-03-14T03:58:01;8.85;;;3.72;;
35648;SDS011;21768;48.562;13.414;2023-03-14T04:00:26;7.82;;;3.20;;
35648;SDS011;21768;48.562;13.414;2023-03-14T04:02:52;19.13;;;3.60;;
35648;SDS011;21768;48.562;13.414;2023-03-14T04:05:17;8.77;;;3.38;;
35648;SDS011;21768;48.562;13.414;2023-03-14T04:07:42;8.55;;;3.42;;
35648;SDS011;21768;48.562;13.414;2023-03-14T04:10:08;7.63;;;3.53;;
35648;SDS011;21768;48.562;13.414;2023-03-14T04:12:34;9.27;;;3.00;;
35648;SDS011;21768;48.562;13.414;2023-03-14T04:14:59;9.52;;;3.42;;
35648;SDS011;21768;48.562;13.414;2023-03-14T04:17:25;8.43;;;3.63;;
35648;SDS011;21768;48.562;13.414;2023-03-14T04:19:50;9.05;;;3.22;;
35648;SDS011;21768;48.562;13.414;2023-03-14T04:22:18;7.10;;;3.88;;
35648;SDS011;21768;48.562;13.414;2023-03-14T04:24:43;10.27;;;3.60;;
35648;SDS011;21768;48.562;13.414;2023-03-14T04:27:09;9.25;;;3.60;;
35648;SDS011;21768;48.562;13.414;2023-03-14T04:29:34;10.98;;;3.85;;
35648;SDS011;21768;48.562;13.414;2023-03-14T04:31:59;9.30;;;3.60;;
35648;SDS011;21768;48.562;13.414;2023-03-14T04:34:25;12.25;;;3.65;;
35648;SDS011;21768;48.562;13.414;2023-03-14T04:36:50;12.88;;;3.95;;
35648;SDS011;21768;48.562;13.414;2023-03-14T04:39:15;9.05;;;4.10;;
35648;SDS011;21768;48.562;13.414;2023-03-14T04:41:41;9.68;;;4.28;;
35648;SDS011;21768;48.562;13.414;2023-03-14T04:44:06;6.32;;;3.58;;
35648;SDS011;21768;48.562;13.414;2023-03-14T04:46:31;8.90;;;4.30;;
35648;SDS011;21768;48.562;13.414;2023-03-14T04:48:57;13.63;;;4.35;;
35648;SDS011;21768;48.562;13.414;2023-03-14T04:51:22;10.38;;;4.28;;
35648;SDS011;21768;48.562;13.414;2023-03-14T04:53:48;8.77;;;4.30;;
35648;SDS011;21768;48.562;13.414;2023-03-14T04:56:14;12.00;;;4.43;;
35648;SDS011;21768;48.562;13.414;2023-03-14T04:58:39;14.23;;;4.50;;
35648;SDS011;21768;48.562;13.414;2023-03-14T05:01:05;12.70;;;3.95;;
35648;SDS011;21768;48.562;13.414;2023-03-14T05:03:31;7.07;;;3.85;;
35648;SDS011;21768;48.562;13.414;2023-03-14T05:05:56;9.48;;;4.35;;
35648;SDS011;21768;48.562;13.414;2023-03-14T05:08:23;10.15;;;4.22;;
35648;SDS011;21768;48.562;13.414;2023-03-14T05:10:55;8.60;;;4.45;;
35648;SDS011;21768;48.562;13.414;2023-03-14T05:13:21;8.23;;;3.97;;
35648;SDS011;21768;48.562;13.414;2023-03-14T05:15:47;6.85;;;3.78;;
35648;SDS011;21768;48.562;13.414;2023-03-14T05:18:13;9.63;;;4.00;;
35648;SDS011;21768;48.562;13.414;2023-03-14T05:20:39;7.30;;;4.00;;
35648;SDS011;21768;48.562;13.414;2023-03-14T05:23:04;5.20;;;3.83;;
35648;SDS011;21768;48.562;13.414;2023-03-14T05:25:30;8.40;;;4.00;;
35648;SDS011;21768;48.562;13.414;2023-03-14T05:27:55;7.80;;;3.63;;
35648;SDS011;21768;48.562;13.414;2023-03-14T05:30:21;7.38;;;4.03;;
35648;SDS011;21768;48.562;13.414;2023-03-14T05:32:47;9.88;;;3.47;;
35648;SDS011;21768;48.562;13.414;2023-03-14T05:35:12;6.00;;;3.42;;
35648;SDS011;21768;48.562;13.414;2023-03-14T05:37:38;7.20;;;3.40;;
35648;SDS011;21768;48.562;13.414;2023-03-14T05:40:04;5.80;;;3.65;;
35648;SDS011;21768;48.562;13.414;2023-03-14T05:42:31;6.85;;;3.42;;
35648;SDS011;21768;48.562;13.414;2023-03-14T05:44:57;6.05;;;3.78;;
35648;SDS011;21768;48.562;13.414;2023-03-14T05:47:22;6.03;;;3.63;;
35648;SDS011;21768;48.562;13.414;2023-03-14T05:49:47;8.10;;;4.53;;
35648;SDS011;21768;48.562;13.414;2023-03-14T05:52:13;10.57;;;3.75;;
35648;SDS011;21768;48.562;13.414;2023-03-14T05:54:39;7.97;;;3.88;;
35648;SDS011;21768;48.562;13.414;2023-03-14T05:57:04;5.78;;;3.30;;
35648;SDS011;21768;48.562;13.414;2023-03-14T05:59:29;5.25;;;2.55;;
35648;SDS011;21768;48.562;13.414;2023-03-14T06:01:55;6.15;;;3.55;;
35648;SDS011;21768;48.562;13.414;2023-03-14T06:04:20;8.35;;;2.20;;
35648;SDS011;21768;48.562;13.414;2023-03-14T06:06:45;3.13;;;2.03;;
35648;SDS011;21768;48.562;13.414;2023-03-14T06:09:11;4.20;;;2.75;;
35648;SDS011;21768;48.562;13.414;2023-03-14T06:11:36;6.50;;;2.28;;
35648;SDS011;21768;48.562;13.414;2023-03-14T06:14:02;2.72;;;2.10;;
35648;SDS011;21768;48.562;13.414;2023-03-14T06:16:27;3.33;;;1.63;;
35648;SDS011;21768;48.562;13.414;2023-03-14T06:18:52;5.75;;;1.80;;
35648;SDS011;21768;48.562;13.414;2023-03-14T06:21:18;4.45;;;1.92;;
35648;SDS011;21768;48.562;13.414;2023-03-14T06:23:44;2.80;;;1.73;;
35648;SDS011;21768;48.562;13.414;2023-03-14T06:26:10;3.75;;;1.70;;
35648;SDS011;21768;48.562;13.414;2023-03-14T06:28:36;4.88;;;1.73;;
35648;SDS011;21768;48.562;13.414;2023-03-14T06:31:02;4.93;;;1.58;;
35648;SDS011;21768;48.562;13.414;2023-03-14T06:33:28;4.95;;;1.85;;
35648;SDS011;21768;48.562;13.414;2023-03-14T06:35:53;2.03;;;1.30;;
35648;SDS011;21768;48.562;13.414;2023-03-14T06:38:19;4.95;;;1.50;;
35648;SDS011;21768;48.562;13.414;2023-03-14T06:40:44;4.32;;;1.27;;
35648;SDS011;21768;48.562;13.414;2023-03-14T06:43:09;3.83;;;1.60;;
35648;SDS011;21768;48.562;13.414;2023-03-14T06:45:35;1.50;;;1.20;;
35648;SDS011;21768;48.562;13.414;2023-03-14T06:48:00;3.38;;;1.45;;
35648;SDS011;21768;48.562;13.414;2023-03-14T06:50:25;2.20;;;1.40;;
35648;SDS011;21768;48.562;13.414;2023-03-14T06:52:51;2.20;;;1.50;;
35648;SDS011;21768;48.562;13.414;2023-03-14T06:55:16;4.13;;;1.48;;
35648;SDS011;21768;48.562;13.414;2023-03-14T06:57:42;2.20;;;1.10;;
35648;SDS011;21768;48.562;13.414;2023-03-14T07:00:09;3.55;;;1.50;;
35648;SDS011;21768;48.562;13.414;2023-03-14T07:02:35;3.40;;;1.40;;
35648;SDS011;21768;48.562;13.414;2023-03-14T07:05:01;8.35;;;1.40;;
35648;SDS011;21768;48.562;13.414;2023-03-14T07:07:26;3.05;;;1.50;;
35648;SDS011;21768;48.562;13.414;2023-03-14T07:09:52;4.60;;;1.50;;
35648;SDS011;21768;48.562;13.414;2023-03-14T07:12:18;4.32;;;1.42;;
35648;SDS011;21768;48.562;13.414;2023-03-14T07:14:44;4.38;;;1.23;;
35648;SDS011;21768;48.562;13.414;2023-03-14T07:17:09;2.15;;;1.08;;
35648;SDS011;21768;48.562;13.414;2023-03-14T07:19:34;1.75;;;1.10;;
35648;SDS011;21768;48.562;13.414;2023-03-14T07:22:00;4.95;;;1.38;;
35648;SDS011;21768;48.562;13.414;2023-03-14T07:24:25;2.95;;;0.95;;
35648;SDS011;21768;48.562;13.414;2023-03-14T07:26:51;4.47;;;1.05;;
35648;SDS011;21768;48.562;13.414;2023-03-14T07:29:17;3.95;;;1.40;;
35648;SDS011;21768;48.562;13.414;2023-03-14T07:31:42;3.00;;;1.10;;
35648;SDS011;21768;48.562;13.414;2023-03-14T07:34:08;3.45;;;1.10;;
35648;SDS011;21768;48.562;13.414;2023-03-14T07:36:33;2.17;;;0.90;;
35648;SDS011;21768;48.562;13.414;2023-03-14T07:38:59;2.05;;;0.65;;
35648;SDS011;21768;48.562;13.414;2023-03-14T07:41:25;3.97;;;0.93;;
35648;SDS011;21768;48.562;13.414;2023-03-14T07:43:51;1.75;;;1.00;;
35648;SDS011;21768;48.562;13.414;2023-03-14T07:46:16;3.80;;;0.82;;
35648;SDS011;21768;48.562;13.414;2023-03-14T07:48:42;2.42;;;0.95;;
35648;SDS011;21768;48.562;13.414;2023-03-14T07:51:08;4.45;;;0.95;;
35648;SDS011;21768;48.562;13.414;2023-03-14T07:53:33;3.38;;;1.17;;
35648;SDS011;21768;48.562;13.414;2023-03-14T07:55:59;5.38;;;1.00;;
35648;SDS011;21768;48.562;13.414;2023-03-14T07:58:25;3.50;;;1.23;;
35648;SDS011;21768;48.562;13.414;2023-03-14T08:00:51;2.38;;;0.80;;
35648;SDS011;21768;48.562;13.414;2023-03-14T08:03:17;3.75;;;1.27;;
35648;SDS011;21768;48.562;13.414;2023-03-14T08:05:43;1.55;;;1.00;;
35648;SDS011;21768;48.562;13.414;2023-03-14T08:08:11;5.80;;;1.38;;
35648;SDS011;21768;48.562;13.414;2023-03-14T08:10:37;4.75;;;0.88;;
35648;SDS011;21768;48.562;13.414;2023-03-14T08:13:02;6.32;;;1.33;;
35648;SDS011;21768;48.562;13.414;2023-03-14T08:15:28;3.20;;;1.00;;
35648;SDS011;21768;48.562;13.414;2023-03-14T08:17:55;4.60;;;0.98;;
35648;SDS011;21768;48.562;13.414;2023-03-14T08:20:21;5.13;;;1.15;;
35648;SDS011;21768;48.562;13.414;2023-03-14T08:22:49;2.03;;;0.90;;
35648;SDS011;21768;48.562;13.414;2023-03-14T08:25:15;3.70;;;0.90;;
35648;SDS011;21768;48.562;13.414;2023-03-14T08:27:40;1.90;;;0.88;;
35648;SDS011;21768;48.562;13.414;2023-03-14T08:30:07;0.90;;;0.68;;
35648;SDS011;21768;48.562;13.414;2023-03-14T08:32:37;3.78;;;0.80;;
35648;SDS011;21768;48.562;13.414;2023-03-14T08:35:03;2.28;;;0.93;;
35648;SDS011;21768;48.562;13.414;2023-03-14T08:37:33;1.10;;;0.70;;
35648;SDS011;21768;48.562;13.414;2023-03-14T08:40:00;1.13;;;0.70;;
35648;SDS011;21768;48.562;13.414;2023-03-14T08:42:25;3.40;;;0.75;;
35648;SDS011;21768;48.562;13.414;2023-03-14T08:44:51;4.20;;;0.98;;
35648;SDS011;21768;48.562;13.414;2023-03-14T08:47:17;3.05;;;0.90;;
35648;SDS011;21768;48.562;13.414;2023-03-14T08:49:43;3.45;;;0.80;;
35648;SDS011;21768;48.562;13.414;2023-03-14T08:52:08;2.55;;;0.75;;
35648;SDS011;21768;48.562;13.414;2023-03-14T08:54:33;3.35;;;0.70;;
35648;SDS011;21768;48.562;13.414;2023-03-14T08:56:59;1.95;;;0.70;;
35648;SDS011;21768;48.562;13.414;2023-03-14T08:59:24;2.03;;;0.60;;
35648;SDS011;21768;48.562;13.414;2023-03-14T09:01:50;2.05;;;0.90;;
35648;SDS011;21768;48.562;13.414;2023-03-14T09:04:15;3.22;;;1.08;;
35648;SDS011;21768;48.562;13.414;2023-03-14T09:06:40;2.75;;;0.60;;
35648;SDS011;21768;48.562;13.414;2023-03-14T09:09:06;1.63;;;0.77;;
35648;SDS011;21768;48.562;13.414;2023-03-14T09:11:31;1.33;;;0.70;;
35648;SDS011;21768;48.562;13.414;2023-03-14T09:13:57;1.65;;;0.85;;
35648;SDS011;21768;48.562;13.414;2023-03-14T09:16:24;3.03;;;0.90;;
35648;SDS011;21768;48.562;13.414;2023-03-14T09:18:50;1.48;;;0.98;;
35648;SDS011;21768;48.562;13.414;2023-03-14T09:21:19;2.25;;;0.80;;
35648;SDS011;21768;48.562;13.414;2023-03-14T09:23:45;1.63;;;0.80;;
35648;SDS011;21768;48.562;13.414;2023-03-14T09:26:10;2.78;;;1.05;;
35648;SDS011;21768;48.562;13.414;2023-03-14T09:28:36;2.17;;;0.98;;
35648;SDS011;21768;48.562;13.414;2023-03-14T09:31:06;2.30;;;0.93;;
35648;SDS011;21768;48.562;13.414;2023-03-14T09:33:34;2.13;;;0.90;;
35648;SDS011;21768;48.562;13.414;2023-03-14T09:36:00;3.90;;;0.95;;
35648;SDS011;21768;48.562;13.414;2023-03-14T09:38:26;3.95;;;1.10;;
35648;SDS011;21768;48.562;13.414;2023-03-14T09:40:52;2.25;;;0.90;;
35648;SDS011;21768;48.562;13.414;2023-03-14T09:43:19;1.88;;;0.90;;
35648;SDS011;21768;48.562;13.414;2023-03-14T09:45:47;2.45;;;1.08;;
35648;SDS011;21768;48.562;13.414;2023-03-14T09:48:19;1.52;;;0.80;;
35648;SDS011;21768;48.562;13.414;2023-03-14T09:50:53;3.70;;;0.73;;
35648;SDS011;21768;48.562;13.414;2023-03-14T09:53:21;1.55;;;0.80;;
35648;SDS011;21768;48.562;13.414;2023-03-14T09:55:51;3.08;;;0.90;;
35648;SDS011;21768;48.562;13.414;2023-03-14T09:58:19;1.05;;;0.60;;
35648;SDS011;21768;48.562;13.414;2023-03-14T10:00:47;1.48;;;0.70;;
35648;SDS011;21768;48.562;13.414;2023-03-14T10:03:29;2.25;;;1.10;;
35648;SDS011;21768;48.562;13.414;2023-03-14T10:05:56;1.67;;;0.88;;
35648;SDS011;21768;48.562;13.414;2023-03-14T10:08:21;4.88;;;0.88;;
35648;SDS011;21768;48.562;13.414;2023-03-14T10:10:47;4.63;;;0.77;;
35648;SDS011;21768;48.562;13.414;2023-03-14T10:15:48;3.60;;;0.90;;
35648;SDS011;21768;48.562;13.414;2023-03-14T10:18:17;1.05;;;0.70;;
35648;SDS011;21768;48.562;13.414;2023-03-14T10:20:43;0.95;;;0.70;;
35648;SDS011;21768;48.562;13.414;2023-03-14T10:25:36;1.85;;;0.90;;
35648;SDS011;21768;48.562;13.414;2023-03-14T10:28:03;10.43;;;1.25;;
35648;SDS011;21768;48.562;13.414;2023-03-14T10:30:34;4.40;;;0.80;;
35648;SDS011;21768;48.562;13.414;2023-03-14T10:33:12;2.63;;;0.90;;
35648;SDS011;21768;48.562;13.414;2023-03-14T10:35:51;2.33;;;0.88;;
35648;SDS011;21768;48.562;13.414;2023-03-14T10:38:23;1.15;;;0.90;;
35648;SDS011;21768;48.562;13.414;2023-03-14T10:40:51;1.27;;;0.88;;
35648;SDS011;21768;48.562;13.414;2023-03-14T10:43:39;1.02;;;0.70;;
35648;SDS011;21768;48.562;13.414;2023-03-14T10:46:07;2.38;;;0.95;;
35648;SDS011;21768;48.562;13.414;2023-03-14T10:48:38;3.67;;;0.88;;
35648;SDS011;21768;48.562;13.414;2023-03-14T10:56:12;6.15;;;0.93;;
35648;SDS011;21768;48.562;13.414;2023-03-14T10:58:43;3.72;;;1.00;;
35648;SDS011;21768;48.562;13.414;2023-03-14T11:03:54;2.65;;;0.98;;
35648;SDS011;21768;48.562;13.414;2023-03-14T11:06:30;1.52;;;0.75;;
35648;SDS011;21768;48.562;13.414;2023-03-14T11:09:02;1.77;;;0.70;;
35648;SDS011;21768;48.562;13.414;2023-03-14T11:11:52;1.52;;;0.82;;
35648;SDS011;21768;48.562;13.414;2023-03-14T11:14:24;5.93;;;0.75;;
35648;SDS011;21768;48.562;13.414;2023-03-14T11:16:56;2.25;;;0.65;;
35648;SDS011;21768;48.562;13.414;2023-03-14T11:22:38;2.17;;;0.80;;
35648;SDS011;21768;48.562;13.414;2023-03-14T11:25:18;3.38;;;1.10;;
35648;SDS011;21768;48.562;13.414;2023-03-14T11:27:55;1.27;;;0.73;;
35648;SDS011;21768;48.562;13.414;2023-03-14T11:30:35;2.28;;;1.10;;
35648;SDS011;21768;48.562;13.414;2023-03-14T11:33:15;4.72;;;1.02;;
35648;SDS011;21768;48.562;13.414;2023-03-14T11:40:58;2.15;;;0.75;;
35648;SDS011;21768;48.562;13.414;2023-03-14T11:43:26;1.38;;;0.60;;
35648;SDS011;21768;48.562;13.414;2023-03-14T11:46:05;1.33;;;0.73;;
35648;SDS011;21768;48.562;13.414;2023-03-14T11:48:55;3.28;;;0.80;;
35648;SDS011;21768;48.562;13.414;2023-03-14T11:51:35;1.10;;;0.50;;
35648;SDS011;21768;48.562;13.414;2023-03-14T11:56:58;2.45;;;0.75;;
35648;SDS011;21768;48.562;13.414;2023-03-14T11:59:37;3.35;;;0.70;;
35648;SDS011;21768;48.562;13.414;2023-03-14T12:02:06;1.88;;;0.57;;
35648;SDS011;21768;48.562;13.414;2023-03-14T12:07:29;1.33;;;0.60;;
35648;SDS011;21768;48.562;13.414;2023-03-14T12:10:06;0.85;;;0.50;;
35648;SDS011;21768;48.562;13.414;2023-03-14T12:12:32;2.25;;;0.60;;
35648;SDS011;21768;48.562;13.414;2023-03-14T12:14:58;1.08;;;0.40;;
35648;SDS011;21768;48.562;13.414;2023-03-14T12:17:35;0.98;;;0.60;;
35648;SDS011;21768;48.562;13.414;2023-03-14T12:25:17;4.03;;;0.45;;
35648;SDS011;21768;48.562;13.414;2023-03-14T12:27:46;0.82;;;0.50;;
35648;SDS011;21768;48.562;13.414;2023-03-14T12:30:17;1.08;;;0.47;;
35648;SDS011;21768;48.562;13.414;2023-03-14T12:38:12;1.23;;;0.30;;
35648;SDS011;21768;48.562;13.414;2023-03-14T12:43:28;1.00;;;0.60;;
35648;SDS011;21768;48.562;13.414;2023-03-14T12:59:33;0.40;;;0.40;;
35648;SDS011;21768;48.562;13.414;2023-03-14T13:05:25;0.67;;;0.50;;
35648;SDS011;21768;48.562;13.414;2023-03-14T13:10:28;0.77;;;0.47;;
35648;SDS011;21768;48.562;13.414;2023-03-14T13:13:02;0.80;;;0.50;;
35648;SDS011;21768;48.562;13.414;2023-03-14T13:15:40;3.78;;;0.50;;
35648;SDS011;21768;48.562;13.414;2023-03-14T13:18:10;3.28;;;0.55;;
35648;SDS011;21768;48.562;13.414;2023-03-14T13:20:39;1.75;;;0.40;;
35648;SDS011;21768;48.562;13.414;2023-03-14T13:23:19;0.60;;;0.50;;
35648;SDS011;21768;48.562;13.414;2023-03-14T13:25:49;1.10;;;0.70;;
35648;SDS011;21768;48.562;13.414;2023-03-14T13:28:15;1.85;;;0.47;;
35648;SDS011;21768;48.562;13.414;2023-03-14T13:30:41;0.75;;;0.32;;
35648;SDS011;21768;48.562;13.414;2023-03-14T13:33:13;4.30;;;0.60;;
35648;SDS011;21768;48.562;13.414;2023-03-14T13:35:43;0.60;;;0.50;;
35648;SDS011;21768;48.562;13.414;2023-03-14T13:38:26;1.55;;;0.60;;
35648;SDS011;21768;48.562;13.414;2023-03-14T13:40:59;4.93;;;0.80;;
35648;SDS011;21768;48.562;13.414;2023-03-14T13:43:33;1.95;;;0.47;;
35648;SDS011;21768;48.562;13.414;2023-03-14T13:46:14;0.85;;;0.60;;
35648;SDS011;21768;48.562;13.414;2023-03-14T13:48:54;2.05;;;0.60;;
35648;SDS011;21768;48.562;13.414;2023-03-14T13:51:23;1.85;;;0.50;;
35648;SDS011;21768;48.562;13.414;2023-03-14T13:56:20;1.15;;;0.40;;
35648;SDS011;21768;48.562;13.414;2023-03-14T13:58:47;0.88;;;0.40;;
35648;SDS011;21768;48.562;13.414;2023-03-14T14:01:16;0.90;;;0.40;;
35648;SDS011;21768;48.562;13.414;2023-03-14T14:03:45;0.90;;;0.60;;
35648;SDS011;21768;48.562;13.414;2023-03-14T14:06:28;1.75;;;0.50;;
35648;SDS011;21768;48.562;13.414;2023-03-14T14:08:57;1.15;;;0.40;;
35648;SDS011;21768;48.562;13.414;2023-03-14T14:12:13;1.10;;;0.70;;
35648;SDS011;21768;48.562;13.414;2023-03-14T14:14:21;1.13;;;0.40;;
35648;SDS011;21768;48.562;13.414;2023-03-14T14:16:49;0.57;;;0.45;;
35648;SDS011;21768;48.562;13.414;2023-03-14T14:19:16;0.32;;;0.30;;
35648;SDS011;21768;48.562;13.414;2023-03-14T14:21:44;1.40;;;0.40;;
35648;SDS011;21768;48.562;13.414;2023-03-14T14:24:14;4.32;;;0.40;;
35648;SDS011;21768;48.562;13.414;2023-03-14T14:26:41;0.43;;;0.30;;
35648;SDS011;21768;48.562;13.414;2023-03-14T14:29:21;0.73;;;0.50;;
35648;SDS011;21768;48.562;13.414;2023-03-14T14:34:38;3.03;;;0.45;;
35648;SDS011;21768;48.562;13.414;2023-03-14T14:37:40;0.80;;;0.40;;
35648;SDS011;21768;48.562;13.414;2023-03-14T14:42:43;1.15;;;0.30;;
35648;SDS011;21768;48.562;13.414;2023-03-14T14:45:12;0.52;;;0.32;;
35648;SDS011;21768;48.562;13.414;2023-03-14T14:48:26;3.40;;;0.40;;
35648;SDS011;21768;48.562;13.414;2023-03-14T14:50:34;0.40;;;0.30;;
35648;SDS011;21768;48.562;13.414;2023-03-14T14:53:49;0.88;;;0.32;;
35648;SDS011;21768;48.562;13.414;2023-03-14T14:56:06;1.33;;;0.98;;
35648;SDS011;21768;48.562;13.414;2023-03-14T14:58:36;0.73;;;0.50;;
35648;SDS011;21768;48.562;13.414;2023-03-14T15:01:19;0.63;;;0.43;;
35648;SDS011;21768;48.562;13.414;2023-03-14T15:03:47;0.60;;;0.40;;
35648;SDS011;21768;48.562;13.414;2023-03-14T15:06:16;2.45;;;0.50;;
35648;SDS011;21768;48.562;13.414;2023-03-14T15:08:42;0.35;;;0.30;;
35648;SDS011;21768;48.562;13.414;2023-03-14T15:11:19;0.70;;;0.47;;
35648;SDS011;21768;48.562;13.414;2023-03-14T15:13:51;0.60;;;0.40;;
35648;SDS011;21768;48.562;13.414;2023-03-14T15:16:27;2.97;;;0.60;;
35648;SDS011;21768;48.562;13.414;2023-03-14T15:18:55;0.45;;;0.40;;
35648;SDS011;21768;48.562;13.414;2023-03-14T15:21:26;0.75;;;0.47;;
35648;SDS011;21768;48.562;13.414;2023-03-14T15:23:52;0.63;;;0.40;;
35648;SDS011;21768;48.562;13.414;2023-03-14T15:26:20;0.82;;;0.40;;
35648;SDS011;21768;48.562;13.414;2023-03-14T15:28:47;1.40;;;0.68;;
35648;SDS011;21768;48.562;13.414;2023-03-14T15:31:13;1.02;;;0.60;;
35648;SDS011;21768;48.562;13.414;2023-03-14T15:33:40;0.93;;;0.60;;
35648;SDS011;21768;48.562;13.414;2023-03-14T15:36:10;2.75;;;0.57;;
35648;SDS011;21768;48.562;13.414;2023-03-14T15:38:51;0.63;;;0.57;;
35648;SDS011;21768;48.562;13.414;2023-03-14T15:41:18;2.72;;;0.70;;
35648;SDS011;21768;48.562;13.414;2023-03-14T15:43:43;1.05;;;0.60;;
35648;SDS011;21768;48.562;13.414;2023-03-14T15:46:09;0.60;;;0.38;;
35648;SDS011;21768;48.562;13.414;2023-03-14T15:48:35;0.82;;;0.40;;
35648;SDS011;21768;48.562;13.414;2023-03-14T15:51:01;1.92;;;0.70;;
35648;SDS011;21768;48.562;13.414;2023-03-14T15:53:26;2.50;;;0.50;;
35648;SDS011;21768;48.562;13.414;2023-03-14T15:55:52;0.75;;;0.40;;